Exning, United Kingdom
Current Conditions -  °F | °C
As of 1:43 PM on Thursday 30 Oct 2014 (Local Time) from EGUN Reporting Station
Haze Haze  
Wind Chill: 63°   Ceiling: 1900
Heat Index: 63°   Visibility: 5mi
Dew Point: 57°   Wind: 10mph
Humidity: 82%   Direction: 230°SW
Pressure: 30.06"   Gusts: NA
Location:  52.27°N, 0.37°E
Report Text: EGUN 301343Z AUTO 23009KT 8000 HZ BKN019 OVC026 17/14 A3006 RMK AO2 CIG 019V025
Loading
Personal Weather Stations






























Interactive Weather Map
Tropical Storm Tracking
New forecast layout! Learn more

10-Day Weather Forecast

Advertisements
Track Severe Weather on mobile